Terminal Aerodrome Forecast
Issued by NWS Huntsville, AL

Home | Current Version | Previous Version | Text Only | Print | Product List | Glossary On
Versions: 1 2 3 4 5 6 7 8 9 10 11 12 13 14 15 16 17 18 19 20 21 22 23 24 25 26 27 28
000
FTUS44 KHUN 020520
TAFMSL
TAF
KMSL 020520Z 0206/0306 16008KT P6SM VCSH FEW020 SCT100 BKN200
     FM021100 23008KT 4SM -SHRA SCT030 BKN080
      TEMPO 0211/0214 4SM TSRA OVC030CB
     FM021600 22012KT 6SM TSRA BKN030CB OVC120
     FM030000 21007KT P6SM VCTS SCT030CB BKN080=

USA.gov is the U.S. government's official web portal to all federal, state and local government web resources and services.